Defoe, Kentucky
Current Conditions -  °F | °C
As of 11:53 AM on Sunday 23 Nov 2014 (Local Time) from KFFT Reporting Station
Overcast Overcast  
Wind Chill: 57°   Ceiling: 7000
Heat Index: 57°   Visibility: 10mi
Dew Point: 43°   Wind: 12mph
Humidity: 59%   Direction: 120°ESE
Pressure: 29.83"   Gusts: NA
Location:  38.369°N, 85.0622°W
Report Text: KFFT 231653Z AUTO 12010KT 10SM OVC070 14/06 A2983 RMK AO2 SLP102 T01390061
Loading
Personal Weather Stations






























Interactive Weather Map New forecast layout! Learn more

10-Day Weather Forecast

Advertisements
Track Severe Weather on mobile